Flight Track Log - Related Links

Times and Time Zones

All times are in EDT time to prevent confusion due to time zone crossing. See the SWA558 flight status page for this flight to view local times or setup timezone preferences in your user account.

Time Position Orientation Groundspeed Altitude Reporting Facility
EDT Latitude Longitude Course Direction KTS MPH feet Rate Location/Type
Sun 08:57:48 PM 39.8000 -104.6167 111° Southeast 195 224 7,100  Level Denver TRACON
Sun 08:58:48 PM 39.7667 -104.5500 123° Southeast 279 321 8,500 1,850 Climbing Denver TRACON
Sun 08:59:48 PM 39.7333 -104.4333 110° East 321 369 10,800 2,282 Climbing Denver TRACON
Sun 09:01:10 PM 39.6989 -104.2558 104° East 383 441 13,900 2,392 Climbing Denver Center
Sun 09:02:11 PM 39.6664 -104.1203 107° East 394 453 16,500 2,390 Climbing Denver Center
Sun 09:03:00 PM 39.6357 -103.9691 111° Southeast  Level FlightAware Approximate
Sun 09:03:13 PM 39.6339 -103.9764 106° East 415 478 18,800  Level Denver Center
Sun 09:04:15 PM 39.6031 -103.8500 108° East 436 502 20,600 2,032 Climbing Denver Center
Sun 09:05:17 PM 39.5608 -103.6731 107° East 434 499 23,000 1,984 Climbing Denver Center
Sun 09:06:19 PM 39.5183 -103.5147 109° East 461 531 24,700 1,742 Climbing Denver Center
Sun 09:07:21 PM 39.4672 -103.3192 109° East 477 549 26,600 1,742 Climbing Denver Center
Sun 09:08:23 PM 39.4236 -103.1539 109° East 485 558 28,300 1,790 Climbing Denver Center
Sun 09:09:25 PM 39.3786 -102.9883 109° East 489 563 30,300 1,790 Climbing Denver Center
Sun 09:10:27 PM 39.3347 -102.8236 109° East 487 560 32,000 1,742 Climbing Denver Center
Sun 09:11:29 PM 39.2858 -102.6489 110° East 488 562 33,900 1,854 Climbing Denver Center
Sun 09:12:30 PM 39.2450 -102.4944 109° East 478 550 35,800 1,742 Climbing Denver Center
Sun 09:13:33 PM 39.1969 -102.3208 110° East 463 533 37,500 1,392 Climbing Denver Center
Sun 09:14:35 PM 39.1544 -102.1725 110° East 462 532 38,700 1,016 Climbing Denver Center
Sun 09:15:37 PM 39.1078 -101.9992 109° East 461 531 39,600 968 Climbing Denver Center
Sun 09:16:39 PM 39.0650 -101.8494 110° East 466 536 40,700 629 Climbing Denver Center
Sun 09:17:41 PM 39.0158 -101.6808 111° Southeast 452 520 40,900 97 Climbing Denver Center
Sun 09:18:43 PM 38.9761 -101.5361 109° East 450 518 40,900  Level Denver Center
Sun 09:19:45 PM 38.9286 -101.3667 110° East 450 518 40,900  Level Denver Center
Sun 09:20:47 PM 38.8878 -101.2203 110° East 453 521 40,900  Level Denver Center
Sun 09:21:49 PM 38.8403 -101.0525 110° East 449 517 40,900  Level Denver Center
Sun 09:22:51 PM 38.7986 -100.9078 110° East 451 519 40,900  Level Denver Center
Sun 09:23:53 PM 38.7572 -100.7619 110° East 453 521 40,900  Level Denver Center
Sun 09:24:55 PM 38.7089 -100.5922 110° East 453 521 40,900  Level Denver Center
Sun 09:25:58 PM 38.6667 -100.4481 111° Southeast 453 521 40,900  Level Denver Center
Sun 09:26:40 PM 38.6303 -100.3269 111° Southeast 453 521 40,900  Level Kansas City Center
Sun 09:27:42 PM 38.5881 -100.1836 111° Southeast 451 519 40,900  Level Kansas City Center
Sun 09:28:44 PM 38.5392 -100.0161 110° East 450 518 40,900  Level Kansas City Center
Sun 09:29:45 PM 38.4953 -99.8706 111° Southeast 455 524 40,900  Level Kansas City Center
Sun 09:30:47 PM 38.4458 -99.7036 111° Southeast 452 520 40,900  Level Kansas City Center
Sun 09:31:49 PM 38.4036 -99.5603 111° Southeast 451 519 40,900  Level Kansas City Center
Sun 09:32:51 PM 38.3561 -99.4053 111° Southeast 450 518 40,900  Level Kansas City Center
Sun 09:33:52 PM 38.3117 -99.2558 111° Southeast 451 519 40,900  Level Kansas City Center
Sun 09:34:54 PM 38.2658 -99.1078 111° Southeast 451 519 40,900  Level Kansas City Center
Sun 09:35:55 PM 38.2197 -98.9589 111° Southeast 452 520 40,900  Level Kansas City Center
Sun 09:36:56 PM 38.1756 -98.8094 111° Southeast 453 521 40,900  Level Kansas City Center
Sun 09:37:58 PM 38.1297 -98.6628 112° Southeast 448 516 40,900  Level Kansas City Center
Sun 09:38:59 PM 38.0831 -98.5161 112° Southeast 447 514 40,900  Level Kansas City Center
Sun 09:40:01 PM 38.0294 -98.3394 111° Southeast 448 516 40,900  Level Kansas City Center
Sun 09:41:02 PM 37.9831 -98.1944 112° Southeast 445 512 40,900  Level Kansas City Center
Sun 09:42:04 PM 37.9422 -98.0669 112° Southeast 443 510 40,900  Level Kansas City Center
Sun 09:43:05 PM 37.8875 -97.8925 112° Southeast 442 509 40,900  Level Kansas City Center
Sun 09:44:07 PM 37.8339 -97.7336 113° Southeast 458 527 40,900  Level Kansas City Center
Sun 09:45:08 PM 37.7892 -97.5906 112° Southeast 450 518 40,900  Level Kansas City Center
Sun 09:46:09 PM 37.7444 -97.4464 111° Southeast 443 510 40,900  Level Kansas City Center
Sun 09:47:11 PM 37.6944 -97.2978 113° Southeast 451 519 40,900  Level Kansas City Center
Sun 09:48:12 PM 37.6481 -97.1511 112° Southeast 451 519 40,900  Level Kansas City Center
Sun 09:49:14 PM 37.6000 -97.0061 113° Southeast 448 516 40,900  Level Kansas City Center
Sun 09:50:15 PM 37.5522 -96.8597 112° Southeast 451 519 40,900  Level Kansas City Center
Sun 09:51:17 PM 37.5064 -96.7167 112° Southeast 443 510 40,900  Level Kansas City Center
Sun 09:52:18 PM 37.4572 -96.5711 113° Southeast 449 517 40,900  Level Kansas City Center
Sun 09:53:19 PM 37.4003 -96.4006 113° Southeast 447 514 40,900  Level Kansas City Center
Sun 09:54:21 PM 37.3508 -96.2597 114° Southeast 442 509 40,900  Level Kansas City Center
Sun 09:55:23 PM 37.3019 -96.1156 113° Southeast 444 511 40,900  Level Kansas City Center
Sun 09:56:24 PM 37.2528 -95.9703 113° Southeast 447 514 40,900  Level Kansas City Center
Sun 09:57:25 PM 37.2039 -95.8256 113° Southeast 449 517 40,900  Level Kansas City Center
Sun 09:58:27 PM 37.1533 -95.6797 113° Southeast 451 519 40,900  Level Kansas City Center
Sun 09:59:28 PM 37.1033 -95.5331 113° Southeast 453 521 40,900  Level Kansas City Center
Sun 10:00:30 PM 37.0531 -95.3872 113° Southeast 454 522 40,900  Level Kansas City Center
Sun 10:01:31 PM 37.0017 -95.2406 114° Southeast 456 525 40,900  Level Kansas City Center
Sun 10:02:33 PM 36.9508 -95.0939 113° Southeast 456 525 40,900  Level Kansas City Center
Sun 10:03:34 PM 36.8986 -94.9481 114° Southeast 456 525 40,900  Level Kansas City Center
Sun 10:04:35 PM 36.8361 -94.7733 114° Southeast 457 526 40,900  Level Kansas City Center
Sun 10:05:37 PM 36.7847 -94.6292 114° Southeast 454 522 40,900  Level Kansas City Center
Sun 10:06:38 PM 36.7342 -94.4881 114° Southeast 447 514 40,900  Level Kansas City Center
Sun 10:07:39 PM 36.6839 -94.3464 114° Southeast 446 513 40,900  Level Kansas City Center
Sun 10:08:41 PM 36.6331 -94.2086 115° Southeast 440 506 40,900  Level Kansas City Center
Sun 10:09:42 PM 36.5833 -94.0711 114° Southeast 435 501 40,900  Level Kansas City Center
Sun 10:10:43 PM 36.5339 -93.9331 114° Southeast 435 501 40,900  Level Kansas City Center
Sun 10:11:45 PM 36.4819 -93.7944 115° Southeast 438 504 40,900  Level Kansas City Center
Sun 10:12:46 PM 36.4297 -93.6522 114° Southeast 442 509 40,900  Level Kansas City Center
Sun 10:13:47 PM 36.3797 -93.5131 114° Southeast 441 507 40,900  Level Kansas City Center
Sun 10:14:49 PM 36.3269 -93.3725 115° Southeast 447 514 40,900  Level Kansas City Center
Sun 10:15:50 PM 36.2753 -93.2325 115° Southeast 446 513 40,900  Level Kansas City Center
Sun 10:16:51 PM 36.2239 -93.0922 114° Southeast 445 512 40,900 46 Level Kansas City Center
Sun 10:18:01 PM 36.1572 -92.9225 116° Southeast 440 506 41,000 46 Climbing Memphis Center
Sun 10:19:01 PM 36.1058 -92.7794 114° Southeast 440 506 41,000  Level Memphis Center
Sun 10:20:01 PM 36.0544 -92.6419 115° Southeast 445 512 41,000  Level Memphis Center
Sun 10:21:01 PM 36.0006 -92.5044 116° Southeast 445 512 41,000  Level Memphis Center
Sun 10:22:01 PM 35.9506 -92.3672 114° Southeast 445 512 41,000  Level Memphis Center
Sun 10:23:01 PM 35.8986 -92.2328 115° Southeast 445 512 41,000  Level Memphis Center
Sun 10:24:01 PM 35.8442 -92.0958 116° Southeast 445 512 41,000  Level Memphis Center
Sun 10:25:01 PM 35.7939 -91.9617 115° Southeast 439 505 41,000  Level Memphis Center
Sun 10:26:01 PM 35.7414 -91.8328 117° Southeast 433 498 41,000  Level Memphis Center
Sun 10:27:01 PM 35.6906 -91.6989 115° Southeast 427 491 41,000  Level Memphis Center
Sun 10:28:01 PM 35.6397 -91.5678 115° Southeast 427 491 41,000  Level Memphis Center
Sun 10:29:01 PM 35.5889 -91.4394 116° Southeast 427 491 41,000  Level Memphis Center
Sun 10:30:01 PM 35.5336 -91.2983 116° Southeast 422 486 41,000  Level Memphis Center
Sun 10:31:01 PM 35.4803 -91.1678 117° Southeast 428 493 41,000  Level Memphis Center
Sun 10:32:01 PM 35.4289 -91.0400 116° Southeast 422 486 41,000  Level Memphis Center
Sun 10:33:01 PM 35.3753 -90.9097 117° Southeast 427 491 41,000  Level Memphis Center
Sun 10:34:01 PM 35.3236 -90.7794 116° Southeast 427 491 41,000  Level Memphis Center
Sun 10:35:01 PM 35.2719 -90.6519 116° Southeast 427 491 41,000  Level Memphis Center
Sun 10:36:01 PM 35.2181 -90.5197 116° Southeast 427 491 41,000  Level Memphis Center
Sun 10:37:01 PM 35.1700 -90.4053 117° Southeast 427 491 41,000  Level Memphis Center
Sun 10:38:01 PM 35.1158 -90.2733 117° Southeast 427 491 41,000  Level Memphis Center
Sun 10:39:01 PM 35.0656 -90.1467 116° Southeast 427 491 41,000  Level Memphis Center
Sun 10:40:01 PM 35.0131 -90.0200 117° Southeast 422 486 41,000  Level Memphis Center
Sun 10:41:01 PM 34.9628 -89.8958 116° Southeast 416 479 41,000  Level Memphis Center
Sun 10:42:01 PM 34.9017 -89.7647 120° Southeast 423 487 41,000  Level Memphis Center
Sun 10:43:01 PM 34.8489 -89.6383 117° Southeast 423 487 41,000  Level Memphis Center
Sun 10:44:01 PM 34.7936 -89.4947 115° Southeast 428 493 41,000  Level Memphis Center
Sun 10:45:01 PM 34.7406 -89.3714 118° Southeast 414 476 41,000  Level Memphis Center
Sun 10:46:01 PM 34.6917 -89.2583 118° Southeast 408 470 41,000  Level Memphis Center
Sun 10:47:01 PM 34.6383 -89.1328 117° Southeast 413 475 41,000  Level Memphis Center
Sun 10:48:01 PM 34.5847 -89.0075 117° Southeast 413 475 41,000  Level Memphis Center
Sun 10:49:01 PM 34.5292 -88.8797 118° Southeast 418 481 41,000  Level Memphis Center
Sun 10:50:01 PM 34.4731 -88.7497 118° Southeast 411 473 41,000  Level Memphis Center
Sun 10:51:01 PM 34.4172 -88.6250 118° Southeast 411 473 41,000  Level Memphis Center
Sun 10:52:01 PM 34.3633 -88.5003 118° Southeast 411 473 41,000  Level Memphis Center
Sun 10:53:01 PM 34.3114 -88.3781 117° Southeast 411 473 41,000  Level Memphis Center
Sun 10:54:01 PM 34.2569 -88.2539 118° Southeast 411 473 41,000  Level Memphis Center
Sun 10:55:57 PM 34.1575 -88.0250 118° Southeast 425 489 41,000  Level Atlanta Center
Sun 10:56:57 PM 34.1011 -87.9019 119° Southeast 425 489 41,000  Level Atlanta Center
Sun 10:57:57 PM 34.0464 -87.7767 118° Southeast 425 489 41,000  Level Atlanta Center
Sun 10:58:57 PM 33.9897 -87.6517 119° Southeast 425 489 41,000  Level Atlanta Center
Sun 10:59:57 PM 33.9369 -87.5267 117° Southeast 425 489 41,000  Level Atlanta Center
Sun 11:00:57 PM 33.8797 -87.4042 119° Southeast 425 489 41,000  Level Atlanta Center
Sun 11:01:57 PM 33.8247 -87.2769 117° Southeast 425 489 41,000  Level Atlanta Center
Sun 11:02:57 PM 33.7694 -87.1525 118° Southeast 425 489 41,000  Level Atlanta Center
Sun 11:03:57 PM 33.7122 -87.0256 118° Southeast 425 489 41,000  Level Atlanta Center
Sun 11:04:57 PM 33.6544 -86.9014 119° Southeast 425 489 41,000  Level Atlanta Center
Sun 11:05:57 PM 33.5989 -86.7772 118° Southeast 425 489 41,000  Level Atlanta Center
Sun 11:06:57 PM 33.5431 -86.6533 118° Southeast 425 489 41,000  Level Atlanta Center
Sun 11:07:57 PM 33.4831 -86.5294 120° Southeast 425 489 41,000  Level Atlanta Center
Sun 11:08:57 PM 33.4253 -86.3908 117° Southeast 425 489 41,000  Level Atlanta Center
Sun 11:09:57 PM 33.3672 -86.2675 119° Southeast 420 483 41,000  Level Atlanta Center
Sun 11:10:57 PM 33.3111 -86.1292 116° Southeast 434 499 41,000  Level Atlanta Center
Sun 11:11:57 PM 33.2503 -86.0136 122° Southeast 429 494 41,000  Level Atlanta Center
Sun 11:12:57 PM 33.1939 -85.8883 118° Southeast 429 494 41,000  Level Atlanta Center
Sun 11:13:57 PM 33.1350 -85.7678 120° Southeast 424 488 41,000  Level Atlanta Center
Sun 11:14:57 PM 33.0764 -85.6378 118° Southeast 424 488 41,000  Level Atlanta Center
Sun 11:15:57 PM 33.0153 -85.5103 120° Southeast 431 496 41,000  Level Atlanta Center
Sun 11:16:57 PM 32.9561 -85.3856 119° Southeast 431 496 41,000  Level Atlanta Center
Sun 11:17:57 PM 32.8969 -85.2611 119° Southeast 436 502 41,000  Level Atlanta Center
Sun 11:18:57 PM 32.8333 -85.1364 121° Southeast 436 502 41,000  Level Atlanta Center
Sun 11:19:57 PM 32.7739 -85.0047 118° Southeast 439 505 41,000  Level Atlanta Center
Sun 11:20:57 PM 32.7061 -84.8731 121° Southeast 452 520 41,000  Level Atlanta Center
Sun 11:21:57 PM 32.6567 -84.7667 119° Southeast 446 513 41,000  Level Atlanta Center
Sun 11:22:57 PM 32.5925 -84.6356 120° Southeast 441 507 41,000  Level Atlanta Center
Sun 11:23:57 PM 32.5306 -84.5094 120° Southeast 452 520 41,000  Level Atlanta Center
Sun 11:24:57 PM 32.4517 -84.3908 128° Southeast 452 520 41,000  Level Atlanta Center
Sun 11:25:57 PM 32.3747 -84.2725 128° Southeast 452 520 41,000  Level Atlanta Center
Sun 11:26:57 PM 32.2956 -84.1544 128° Southeast 452 520 41,000 -200 Level Atlanta Center
Sun 11:27:57 PM 32.2203 -84.0389 128° Southeast 452 520 40,600 -650 Descending Atlanta Center
Sun 11:28:57 PM 32.1431 -83.9236 128° Southeast 452 520 39,700 -971 Descending Atlanta Center
Sun 11:29:42 PM 32.0775 -83.8267 129° Southeast 445 512 38,900 -1,029 Descending Jacksonville Center
Sun 11:30:42 PM 32.0011 -83.7108 128° Southeast 457 526 37,900 -950 Descending Jacksonville Center
Sun 11:31:42 PM 31.9244 -83.5950 128° Southeast 457 526 37,000 -950 Descending Jacksonville Center
Sun 11:32:42 PM 31.8436 -83.4772 129° Southeast 457 526 36,000 -950 Descending Jacksonville Center
Sun 11:33:42 PM 31.7628 -83.3617 129° Southeast 457 526 35,100 -950 Descending Jacksonville Center
Sun 11:34:42 PM 31.6817 -83.2417 128° Southeast 457 526 34,100 -1,000 Descending Jacksonville Center
Sun 11:35:42 PM 31.6006 -83.1219 128° Southeast 462 532 33,100 -2,000 Descending Jacksonville Center
Sun 11:36:42 PM 31.5192 -83.0047 129° Southeast 462 532 30,100 -3,050 Descending Jacksonville Center
Sun 11:37:42 PM 31.4400 -82.8878 128° Southeast 462 532 27,000 -2,950 Descending Jacksonville Center
Sun 11:38:42 PM 31.3606 -82.7758 130° Southeast 462 532 24,200 -7,500 Descending Jacksonville Center
Sun 11:39:42 PM 31.2894 -82.6689 128° Southeast 446 513 12,000 -2,500 Descending Jacksonville Center
Sun 11:40:42 PM 31.2203 -82.5744 131° Southeast 431 496 19,200 2,300 Climbing Jacksonville Center
Sun 11:41:42 PM 31.1511 -82.4750 129° Southeast 417 480 16,600 -2,716 Descending Jacksonville Center
Sun 11:42:17 PM 31.1092 -82.4122 128° Southeast 386 444 14,900 -3,073 Descending Jacksonville Center
Sun 11:42:23 PM 31.0986 -82.4000 135° Southeast 385 443 14,500 -1,920 Descending Jacksonville Center
Sun 11:42:42 PM 31.0819 -82.3831 139° Southeast 394 453 14,100 -2,164 Descending Jacksonville Center
Sun 11:43:24 PM 31.0336 -82.3033 125° Southeast 371 427 12,300 -2,100 Descending Jacksonville Center
Sun 11:43:42 PM 31.0167 -82.2889 144° Southeast 381 438 12,000 -300 Descending Jacksonville Center
Sun 11:44:24 PM 30.9664 -82.2311 135° Southeast 313 360 12,000 -300 Level Jacksonville Center
Sun 11:44:42 PM 30.9517 -82.2192 145° Southeast 348 400 11,700 -1,770 Descending Jacksonville Center
Sun 11:45:25 PM 30.9056 -82.1686 137° Southeast 282 325 10,200 -1,800 Descending Jacksonville Center
Sun 11:45:42 PM 30.8928 -82.1567 141° Southeast 313 360 9,900 -1,475 Descending Jacksonville Center
Sun 11:46:26 PM 30.8486 -82.1036 134° Southeast 286 329 8,700 -1,500 Descending Jacksonville Center
Sun 11:46:42 PM 30.8339 -82.0917 145° Southeast 293 337 8,400 -1,600 Descending Jacksonville Center
Sun 11:47:26 PM 30.7878 -82.0389 135° Southeast 277 319 7,100 -1,500 Descending Jacksonville Center
Sun 11:47:42 PM 30.7772 -82.0317 150° Southeast 287 330 6,900 -1,475 Descending Jacksonville Center
Sun 11:48:27 PM 30.7331 -81.9789 134° Southeast 273 314 5,600 -1,500 Descending Jacksonville Center
Sun 11:48:42 PM 30.7225 -81.9694 142° Southeast 282 325 5,400 -1,500 Descending Jacksonville Center
Sun 11:49:27 PM 30.6783 -81.9167 134° Southeast 270 311 4,100 -1,500 Descending Jacksonville Center
Sun 11:49:42 PM 30.6700 -81.9119 154° Southeast 277 319 3,900 -984 Descending Jacksonville Center
Sun 11:50:28 PM 30.6236 -81.8569 134° Southeast 267 307 3,100 -800 Descending Jacksonville Center
Sun 11:50:42 PM 30.6150 -81.8522 155° Southeast 267 307 3,100 -689 Level Jacksonville Center
Sun 11:51:29 PM 30.5772 -81.8164 141° Southeast 177 204 2,400 -800 Descending Jacksonville Center
Sun 11:51:42 PM 30.5731 -81.8117 136° Southeast 239 275 2,300 -800 Descending Jacksonville Center
Sun 11:52:29 PM 30.5436 -81.7758 134° Southeast 160 184 1,600 -778 Descending Jacksonville Center
Sun 11:53:30 PM 30.5203 -81.7422 129° Southeast 122 140 900 -639 Descending Jacksonville Center
Sun 11:54:31 PM 30.4992 -81.7136 131° Southeast 118 136 300 -590 Descending Jacksonville Center
Sun 11:56:00 PM 30.4941 -81.6878 135° Southeast  Level Estimated
Mon 12:03:00 AM 30.4941 -81.6878 311° West  Level Estimated

Login

Don't have an account? Register now (free) for customized features, flight alerts, and more!